sensor_id;sensor_type;location;lat;lon;timestamp;P1;durP1;ratioP1;P2;durP2;ratioP2
7493;SDS011;3788;49.902;8.590;2023-10-13T00:01:44;7.57;;;5.27;;
7493;SDS011;3788;49.902;8.590;2023-10-13T00:04:12;9.60;;;5.30;;
7493;SDS011;3788;49.902;8.590;2023-10-13T00:06:39;8.30;;;5.40;;
7493;SDS011;3788;49.902;8.590;2023-10-13T00:09:09;8.57;;;5.43;;
7493;SDS011;3788;49.902;8.590;2023-10-13T00:11:40;5.67;;;5.17;;
7493;SDS011;3788;49.902;8.590;2023-10-13T00:14:09;7.80;;;5.67;;
7493;SDS011;3788;49.902;8.590;2023-10-13T00:16:38;9.37;;;5.37;;
7493;SDS011;3788;49.902;8.590;2023-10-13T00:19:05;7.60;;;5.30;;
7493;SDS011;3788;49.902;8.590;2023-10-13T00:21:35;9.27;;;6.07;;
7493;SDS011;3788;49.902;8.590;2023-10-13T00:24:01;7.57;;;5.53;;
7493;SDS011;3788;49.902;8.590;2023-10-13T00:26:32;6.70;;;5.10;;
7493;SDS011;3788;49.902;8.590;2023-10-13T00:29:02;8.00;;;5.47;;
7493;SDS011;3788;49.902;8.590;2023-10-13T00:31:40;8.87;;;5.00;;
7493;SDS011;3788;49.902;8.590;2023-10-13T00:34:08;6.20;;;5.50;;
7493;SDS011;3788;49.902;8.590;2023-10-13T00:36:37;6.27;;;5.17;;
7493;SDS011;3788;49.902;8.590;2023-10-13T00:39:13;7.07;;;5.30;;
7493;SDS011;3788;49.902;8.590;2023-10-13T00:41:42;6.27;;;4.70;;
7493;SDS011;3788;49.902;8.590;2023-10-13T00:44:23;5.80;;;5.20;;
7493;SDS011;3788;49.902;8.590;2023-10-13T00:46:53;6.60;;;5.13;;
7493;SDS011;3788;49.902;8.590;2023-10-13T00:49:21;6.33;;;5.20;;
7493;SDS011;3788;49.902;8.590;2023-10-13T00:51:49;6.03;;;4.80;;
7493;SDS011;3788;49.902;8.590;2023-10-13T00:54:15;6.20;;;5.47;;
7493;SDS011;3788;49.902;8.590;2023-10-13T00:56:53;6.57;;;5.27;;
7493;SDS011;3788;49.902;8.590;2023-10-13T00:59:29;8.03;;;5.03;;
7493;SDS011;3788;49.902;8.590;2023-10-13T01:01:58;6.47;;;4.93;;
7493;SDS011;3788;49.902;8.590;2023-10-13T01:04:33;6.40;;;5.40;;
7493;SDS011;3788;49.902;8.590;2023-10-13T01:07:00;7.10;;;5.40;;
7493;SDS011;3788;49.902;8.590;2023-10-13T01:09:26;6.23;;;4.97;;
7493;SDS011;3788;49.902;8.590;2023-10-13T01:11:54;7.00;;;5.10;;
7493;SDS011;3788;49.902;8.590;2023-10-13T01:14:20;6.80;;;5.07;;
7493;SDS011;3788;49.902;8.590;2023-10-13T01:16:48;10.00;;;5.70;;
7493;SDS011;3788;49.902;8.590;2023-10-13T01:19:17;6.33;;;5.07;;
7493;SDS011;3788;49.902;8.590;2023-10-13T01:21:44;7.70;;;5.53;;
7493;SDS011;3788;49.902;8.590;2023-10-13T01:24:13;6.40;;;5.30;;
7493;SDS011;3788;49.902;8.590;2023-10-13T01:26:40;7.10;;;5.77;;
7493;SDS011;3788;49.902;8.590;2023-10-13T01:29:07;8.13;;;5.10;;
7493;SDS011;3788;49.902;8.590;2023-10-13T01:31:37;7.50;;;5.97;;
7493;SDS011;3788;49.902;8.590;2023-10-13T01:34:10;7.77;;;5.40;;
7493;SDS011;3788;49.902;8.590;2023-10-13T01:36:37;9.53;;;5.27;;
7493;SDS011;3788;49.902;8.590;2023-10-13T01:39:05;9.13;;;5.60;;
7493;SDS011;3788;49.902;8.590;2023-10-13T01:41:33;7.73;;;5.33;;
7493;SDS011;3788;49.902;8.590;2023-10-13T01:44:02;7.87;;;5.17;;
7493;SDS011;3788;49.902;8.590;2023-10-13T01:46:29;7.07;;;5.37;;
7493;SDS011;3788;49.902;8.590;2023-10-13T01:48:55;8.30;;;5.53;;
7493;SDS011;3788;49.902;8.590;2023-10-13T01:51:22;5.77;;;4.83;;
7493;SDS011;3788;49.902;8.590;2023-10-13T01:53:48;6.53;;;5.27;;
7493;SDS011;3788;49.902;8.590;2023-10-13T01:56:21;6.67;;;5.17;;
7493;SDS011;3788;49.902;8.590;2023-10-13T01:58:49;9.40;;;5.23;;
7493;SDS011;3788;49.902;8.590;2023-10-13T02:01:17;7.70;;;5.30;;
7493;SDS011;3788;49.902;8.590;2023-10-13T02:03:51;6.00;;;5.40;;
7493;SDS011;3788;49.902;8.590;2023-10-13T02:06:27;7.30;;;5.80;;
7493;SDS011;3788;49.902;8.590;2023-10-13T02:08:57;7.60;;;6.00;;
7493;SDS011;3788;49.902;8.590;2023-10-13T02:11:30;8.73;;;5.37;;
7493;SDS011;3788;49.902;8.590;2023-10-13T02:13:58;8.57;;;6.20;;
7493;SDS011;3788;49.902;8.590;2023-10-13T02:16:25;10.70;;;6.67;;
7493;SDS011;3788;49.902;8.590;2023-10-13T02:18:51;9.03;;;6.13;;
7493;SDS011;3788;49.902;8.590;2023-10-13T02:21:17;8.00;;;5.73;;
7493;SDS011;3788;49.902;8.590;2023-10-13T02:23:43;7.90;;;6.13;;
7493;SDS011;3788;49.902;8.590;2023-10-13T02:26:10;6.27;;;5.60;;
7493;SDS011;3788;49.902;8.590;2023-10-13T02:28:41;8.40;;;5.93;;
7493;SDS011;3788;49.902;8.590;2023-10-13T02:31:10;7.60;;;6.03;;
7493;SDS011;3788;49.902;8.590;2023-10-13T02:33:36;7.63;;;6.00;;
7493;SDS011;3788;49.902;8.590;2023-10-13T02:36:10;7.47;;;5.77;;
7493;SDS011;3788;49.902;8.590;2023-10-13T02:38:37;8.20;;;5.63;;
7493;SDS011;3788;49.902;8.590;2023-10-13T02:41:11;7.60;;;5.53;;
7493;SDS011;3788;49.902;8.590;2023-10-13T02:43:37;8.10;;;6.30;;
7493;SDS011;3788;49.902;8.590;2023-10-13T02:46:04;8.87;;;6.07;;
7493;SDS011;3788;49.902;8.590;2023-10-13T02:48:32;7.97;;;5.67;;
7493;SDS011;3788;49.902;8.590;2023-10-13T02:51:05;6.87;;;5.70;;
7493;SDS011;3788;49.902;8.590;2023-10-13T02:53:40;6.40;;;5.73;;
7493;SDS011;3788;49.902;8.590;2023-10-13T02:56:06;9.07;;;6.07;;
7493;SDS011;3788;49.902;8.590;2023-10-13T02:58:34;10.00;;;5.77;;
7493;SDS011;3788;49.902;8.590;2023-10-13T03:01:10;7.93;;;5.07;;
7493;SDS011;3788;49.902;8.590;2023-10-13T03:03:45;9.67;;;6.23;;
7493;SDS011;3788;49.902;8.590;2023-10-13T03:06:16;6.60;;;5.90;;
7493;SDS011;3788;49.902;8.590;2023-10-13T03:08:46;9.23;;;6.67;;
7493;SDS011;3788;49.902;8.590;2023-10-13T03:11:12;8.67;;;6.83;;
7493;SDS011;3788;49.902;8.590;2023-10-13T03:13:39;11.27;;;6.50;;
7493;SDS011;3788;49.902;8.590;2023-10-13T03:16:13;9.53;;;6.10;;
7493;SDS011;3788;49.902;8.590;2023-10-13T03:18:42;7.23;;;6.40;;
7493;SDS011;3788;49.902;8.590;2023-10-13T03:21:20;12.80;;;7.47;;
7493;SDS011;3788;49.902;8.590;2023-10-13T03:23:56;10.53;;;6.73;;
7493;SDS011;3788;49.902;8.590;2023-10-13T03:26:29;7.50;;;6.70;;
7493;SDS011;3788;49.902;8.590;2023-10-13T03:28:59;7.67;;;6.67;;
7493;SDS011;3788;49.902;8.590;2023-10-13T03:31:28;10.23;;;6.53;;
7493;SDS011;3788;49.902;8.590;2023-10-13T03:33:55;8.93;;;7.03;;
7493;SDS011;3788;49.902;8.590;2023-10-13T03:36:26;9.27;;;7.47;;
7493;SDS011;3788;49.902;8.590;2023-10-13T03:39:15;11.37;;;6.93;;
7493;SDS011;3788;49.902;8.590;2023-10-13T03:41:42;7.60;;;6.67;;
7493;SDS011;3788;49.902;8.590;2023-10-13T03:44:10;12.80;;;6.40;;
7493;SDS011;3788;49.902;8.590;2023-10-13T03:46:43;9.60;;;6.27;;
7493;SDS011;3788;49.902;8.590;2023-10-13T03:49:12;15.40;;;8.47;;
7493;SDS011;3788;49.902;8.590;2023-10-13T03:51:41;9.30;;;7.17;;
7493;SDS011;3788;49.902;8.590;2023-10-13T03:54:08;10.27;;;6.70;;
7493;SDS011;3788;49.902;8.590;2023-10-13T03:56:35;7.97;;;5.97;;
7493;SDS011;3788;49.902;8.590;2023-10-13T03:59:05;7.67;;;6.20;;
7493;SDS011;3788;49.902;8.590;2023-10-13T04:01:35;11.00;;;6.90;;
7493;SDS011;3788;49.902;8.590;2023-10-13T04:04:10;9.83;;;6.73;;
7493;SDS011;3788;49.902;8.590;2023-10-13T04:06:40;7.53;;;6.77;;
7493;SDS011;3788;49.902;8.590;2023-10-13T04:09:38;10.43;;;6.87;;
7493;SDS011;3788;49.902;8.590;2023-10-13T04:12:19;10.40;;;6.57;;
7493;SDS011;3788;49.902;8.590;2023-10-13T04:15:03;9.10;;;6.77;;
7493;SDS011;3788;49.902;8.590;2023-10-13T04:17:48;9.97;;;6.50;;
7493;SDS011;3788;49.902;8.590;2023-10-13T04:20:16;9.43;;;6.23;;
7493;SDS011;3788;49.902;8.590;2023-10-13T04:22:59;8.90;;;6.33;;
7493;SDS011;3788;49.902;8.590;2023-10-13T04:25:42;9.43;;;6.90;;
7493;SDS011;3788;49.902;8.590;2023-10-13T04:28:31;8.30;;;5.63;;
7493;SDS011;3788;49.902;8.590;2023-10-13T04:31:00;7.83;;;6.10;;
7493;SDS011;3788;49.902;8.590;2023-10-13T04:33:37;9.10;;;6.33;;
7493;SDS011;3788;49.902;8.590;2023-10-13T04:36:16;8.57;;;5.90;;
7493;SDS011;3788;49.902;8.590;2023-10-13T04:38:49;7.17;;;5.60;;
7493;SDS011;3788;49.902;8.590;2023-10-13T04:41:23;8.93;;;6.00;;
7493;SDS011;3788;49.902;8.590;2023-10-13T04:43:57;9.67;;;6.67;;
7493;SDS011;3788;49.902;8.590;2023-10-13T04:46:29;12.13;;;6.90;;
7493;SDS011;3788;49.902;8.590;2023-10-13T04:49:19;7.23;;;6.17;;
7493;SDS011;3788;49.902;8.590;2023-10-13T04:51:53;8.90;;;6.27;;
7493;SDS011;3788;49.902;8.590;2023-10-13T04:54:30;7.73;;;6.50;;
7493;SDS011;3788;49.902;8.590;2023-10-13T04:57:10;6.93;;;6.23;;
7493;SDS011;3788;49.902;8.590;2023-10-13T04:59:50;10.83;;;6.80;;
7493;SDS011;3788;49.902;8.590;2023-10-13T05:02:35;9.70;;;6.53;;
7493;SDS011;3788;49.902;8.590;2023-10-13T05:05:42;8.47;;;6.20;;
7493;SDS011;3788;49.902;8.590;2023-10-13T05:08:32;9.20;;;6.27;;
7493;SDS011;3788;49.902;8.590;2023-10-13T05:11:17;9.23;;;6.47;;
7493;SDS011;3788;49.902;8.590;2023-10-13T05:14:01;11.00;;;6.53;;
7493;SDS011;3788;49.902;8.590;2023-10-13T05:16:46;9.73;;;6.07;;
7493;SDS011;3788;49.902;8.590;2023-10-13T05:19:30;10.63;;;6.03;;
7493;SDS011;3788;49.902;8.590;2023-10-13T05:22:14;10.20;;;5.90;;
7493;SDS011;3788;49.902;8.590;2023-10-13T05:24:58;10.10;;;6.10;;
7493;SDS011;3788;49.902;8.590;2023-10-13T05:27:44;7.07;;;5.40;;
7493;SDS011;3788;49.902;8.590;2023-10-13T05:30:28;10.40;;;6.23;;
7493;SDS011;3788;49.902;8.590;2023-10-13T05:33:12;8.70;;;5.40;;
7493;SDS011;3788;49.902;8.590;2023-10-13T05:35:56;8.20;;;5.93;;
7493;SDS011;3788;49.902;8.590;2023-10-13T05:38:39;9.57;;;5.97;;
7493;SDS011;3788;49.902;8.590;2023-10-13T05:41:24;7.93;;;5.97;;
7493;SDS011;3788;49.902;8.590;2023-10-13T05:44:09;7.47;;;6.17;;
7493;SDS011;3788;49.902;8.590;2023-10-13T05:46:54;8.60;;;5.50;;
7493;SDS011;3788;49.902;8.590;2023-10-13T05:49:40;7.80;;;5.93;;
7493;SDS011;3788;49.902;8.590;2023-10-13T05:52:15;8.60;;;6.10;;
7493;SDS011;3788;49.902;8.590;2023-10-13T05:54:44;8.47;;;6.07;;
7493;SDS011;3788;49.902;8.590;2023-10-13T05:57:29;6.23;;;5.53;;
7493;SDS011;3788;49.902;8.590;2023-10-13T06:00:29;7.60;;;6.30;;
7493;SDS011;3788;49.902;8.590;2023-10-13T06:03:28;7.30;;;5.57;;
7493;SDS011;3788;49.902;8.590;2023-10-13T06:06:12;7.27;;;5.43;;
7493;SDS011;3788;49.902;8.590;2023-10-13T06:09:02;7.53;;;5.30;;
7493;SDS011;3788;49.902;8.590;2023-10-13T06:11:46;8.50;;;5.57;;
7493;SDS011;3788;49.902;8.590;2023-10-13T06:14:30;10.03;;;5.80;;
7493;SDS011;3788;49.902;8.590;2023-10-13T06:17:16;7.60;;;5.23;;
7493;SDS011;3788;49.902;8.590;2023-10-13T06:20:01;6.60;;;5.60;;
7493;SDS011;3788;49.902;8.590;2023-10-13T06:22:47;7.10;;;5.40;;
7493;SDS011;3788;49.902;8.590;2023-10-13T06:25:31;8.43;;;5.20;;
7493;SDS011;3788;49.902;8.590;2023-10-13T06:28:15;7.50;;;5.13;;
7493;SDS011;3788;49.902;8.590;2023-10-13T06:30:59;7.70;;;5.50;;
7493;SDS011;3788;49.902;8.590;2023-10-13T06:33:32;5.77;;;5.23;;
7493;SDS011;3788;49.902;8.590;2023-10-13T06:36:00;5.57;;;5.00;;
7493;SDS011;3788;49.902;8.590;2023-10-13T06:38:28;5.83;;;4.97;;
7493;SDS011;3788;49.902;8.590;2023-10-13T06:41:01;5.83;;;4.70;;
7493;SDS011;3788;49.902;8.590;2023-10-13T06:43:30;4.50;;;4.10;;
7493;SDS011;3788;49.902;8.590;2023-10-13T06:45:58;5.73;;;5.13;;
7493;SDS011;3788;49.902;8.590;2023-10-13T06:48:26;6.33;;;4.60;;
7493;SDS011;3788;49.902;8.590;2023-10-13T06:50:59;6.50;;;4.87;;
7493;SDS011;3788;49.902;8.590;2023-10-13T06:53:29;4.97;;;4.43;;
7493;SDS011;3788;49.902;8.590;2023-10-13T06:56:01;6.23;;;4.70;;
7493;SDS011;3788;49.902;8.590;2023-10-13T06:58:29;5.03;;;4.30;;
7493;SDS011;3788;49.902;8.590;2023-10-13T07:00:57;6.07;;;5.47;;
7493;SDS011;3788;49.902;8.590;2023-10-13T07:03:26;7.90;;;4.60;;
7493;SDS011;3788;49.902;8.590;2023-10-13T07:05:53;5.67;;;5.03;;
7493;SDS011;3788;49.902;8.590;2023-10-13T07:08:25;5.87;;;4.90;;
7493;SDS011;3788;49.902;8.590;2023-10-13T07:10:52;6.70;;;4.17;;
7493;SDS011;3788;49.902;8.590;2023-10-13T07:13:27;6.47;;;4.57;;
7493;SDS011;3788;49.902;8.590;2023-10-13T07:15:55;6.23;;;4.40;;
7493;SDS011;3788;49.902;8.590;2023-10-13T07:18:30;5.87;;;4.27;;
7493;SDS011;3788;49.902;8.590;2023-10-13T07:21:02;6.97;;;4.77;;
7493;SDS011;3788;49.902;8.590;2023-10-13T07:23:36;8.33;;;4.23;;
7493;SDS011;3788;49.902;8.590;2023-10-13T07:26:04;6.40;;;4.47;;
7493;SDS011;3788;49.902;8.590;2023-10-13T07:28:33;7.00;;;4.47;;
7493;SDS011;3788;49.902;8.590;2023-10-13T07:31:02;7.87;;;4.73;;
7493;SDS011;3788;49.902;8.590;2023-10-13T07:33:41;7.03;;;4.47;;
7493;SDS011;3788;49.902;8.590;2023-10-13T07:36:08;6.47;;;4.53;;
7493;SDS011;3788;49.902;8.590;2023-10-13T07:38:44;6.77;;;4.93;;
7493;SDS011;3788;49.902;8.590;2023-10-13T07:41:25;7.17;;;4.77;;
7493;SDS011;3788;49.902;8.590;2023-10-13T07:43:55;5.77;;;4.63;;
7493;SDS011;3788;49.902;8.590;2023-10-13T07:46:22;5.90;;;4.77;;
7493;SDS011;3788;49.902;8.590;2023-10-13T07:48:56;9.50;;;4.93;;
7493;SDS011;3788;49.902;8.590;2023-10-13T07:51:33;6.03;;;4.63;;
7493;SDS011;3788;49.902;8.590;2023-10-13T07:54:10;5.03;;;4.30;;
7493;SDS011;3788;49.902;8.590;2023-10-13T07:56:38;7.40;;;5.17;;
7493;SDS011;3788;49.902;8.590;2023-10-13T07:59:05;9.50;;;5.37;;
7493;SDS011;3788;49.902;8.590;2023-10-13T08:01:33;5.07;;;3.83;;
7493;SDS011;3788;49.902;8.590;2023-10-13T08:04:00;9.07;;;4.87;;
7493;SDS011;3788;49.902;8.590;2023-10-13T08:06:36;7.37;;;4.43;;
7493;SDS011;3788;49.902;8.590;2023-10-13T08:09:05;4.97;;;4.07;;
7493;SDS011;3788;49.902;8.590;2023-10-13T08:11:55;5.57;;;4.30;;
7493;SDS011;3788;49.902;8.590;2023-10-13T08:14:21;4.83;;;3.97;;
7493;SDS011;3788;49.902;8.590;2023-10-13T08:16:48;8.07;;;4.27;;
7493;SDS011;3788;49.902;8.590;2023-10-13T08:19:25;6.93;;;4.47;;
7493;SDS011;3788;49.902;8.590;2023-10-13T08:21:53;6.87;;;4.63;;
7493;SDS011;3788;49.902;8.590;2023-10-13T08:24:23;6.23;;;4.47;;
7493;SDS011;3788;49.902;8.590;2023-10-13T08:26:54;8.53;;;4.93;;
7493;SDS011;3788;49.902;8.590;2023-10-13T08:29:38;9.70;;;5.00;;
7493;SDS011;3788;49.902;8.590;2023-10-13T08:32:34;7.87;;;4.20;;
7493;SDS011;3788;49.902;8.590;2023-10-13T08:35:10;9.90;;;4.87;;
7493;SDS011;3788;49.902;8.590;2023-10-13T08:37:50;5.53;;;4.30;;
7493;SDS011;3788;49.902;8.590;2023-10-13T08:40:29;7.37;;;4.17;;
7493;SDS011;3788;49.902;8.590;2023-10-13T08:43:14;7.63;;;4.63;;
7493;SDS011;3788;49.902;8.590;2023-10-13T08:45:42;4.97;;;4.30;;
7493;SDS011;3788;49.902;8.590;2023-10-13T08:48:24;5.97;;;4.33;;
7493;SDS011;3788;49.902;8.590;2023-10-13T08:50:56;6.90;;;4.17;;
7493;SDS011;3788;49.902;8.590;2023-10-13T08:53:29;6.47;;;4.13;;
7493;SDS011;3788;49.902;8.590;2023-10-13T08:55:57;5.50;;;4.37;;
7493;SDS011;3788;49.902;8.590;2023-10-13T08:58:34;7.47;;;4.07;;
7493;SDS011;3788;49.902;8.590;2023-10-13T09:01:20;6.87;;;4.60;;
7493;SDS011;3788;49.902;8.590;2023-10-13T09:04:01;5.43;;;4.70;;
7493;SDS011;3788;49.902;8.590;2023-10-13T09:06:42;5.80;;;4.00;;
7493;SDS011;3788;49.902;8.590;2023-10-13T09:09:12;7.17;;;4.83;;
7493;SDS011;3788;49.902;8.590;2023-10-13T09:11:51;5.80;;;4.40;;
7493;SDS011;3788;49.902;8.590;2023-10-13T09:14:34;8.77;;;3.97;;
7493;SDS011;3788;49.902;8.590;2023-10-13T09:17:02;5.20;;;4.00;;
7493;SDS011;3788;49.902;8.590;2023-10-13T09:19:58;6.83;;;4.70;;
7493;SDS011;3788;49.902;8.590;2023-10-13T09:22:36;5.43;;;4.40;;
7493;SDS011;3788;49.902;8.590;2023-10-13T09:25:03;5.40;;;3.80;;
7493;SDS011;3788;49.902;8.590;2023-10-13T09:27:30;6.17;;;3.83;;
7493;SDS011;3788;49.902;8.590;2023-10-13T09:30:00;7.50;;;4.17;;
7493;SDS011;3788;49.902;8.590;2023-10-13T09:32:34;7.10;;;4.23;;
7493;SDS011;3788;49.902;8.590;2023-10-13T09:35:10;7.33;;;4.33;;
7493;SDS011;3788;49.902;8.590;2023-10-13T09:37:41;7.33;;;4.33;;
7493;SDS011;3788;49.902;8.590;2023-10-13T09:40:11;6.97;;;4.17;;
7493;SDS011;3788;49.902;8.590;2023-10-13T09:42:50;5.57;;;3.90;;
7493;SDS011;3788;49.902;8.590;2023-10-13T09:45:18;7.97;;;3.87;;
7493;SDS011;3788;49.902;8.590;2023-10-13T09:47:52;5.77;;;4.13;;
7493;SDS011;3788;49.902;8.590;2023-10-13T09:50:22;7.13;;;3.93;;
7493;SDS011;3788;49.902;8.590;2023-10-13T09:52:58;5.07;;;4.10;;
7493;SDS011;3788;49.902;8.590;2023-10-13T09:55:27;6.03;;;4.27;;
7493;SDS011;3788;49.902;8.590;2023-10-13T09:57:57;5.53;;;4.27;;
7493;SDS011;3788;49.902;8.590;2023-10-13T10:00:36;7.70;;;4.40;;
7493;SDS011;3788;49.902;8.590;2023-10-13T10:03:15;5.80;;;4.50;;
7493;SDS011;3788;49.902;8.590;2023-10-13T10:05:55;6.83;;;4.73;;
7493;SDS011;3788;49.902;8.590;2023-10-13T10:08:28;5.67;;;3.90;;
7493;SDS011;3788;49.902;8.590;2023-10-13T10:13:47;8.17;;;4.60;;
7493;SDS011;3788;49.902;8.590;2023-10-13T10:16:27;8.77;;;4.37;;
7493;SDS011;3788;49.902;8.590;2023-10-13T10:19:02;7.40;;;4.83;;
7493;SDS011;3788;49.902;8.590;2023-10-13T10:21:33;4.93;;;4.20;;
7493;SDS011;3788;49.902;8.590;2023-10-13T10:24:00;11.07;;;4.77;;
7493;SDS011;3788;49.902;8.590;2023-10-13T10:26:38;8.30;;;4.23;;
7493;SDS011;3788;49.902;8.590;2023-10-13T10:29:16;5.47;;;3.93;;
7493;SDS011;3788;49.902;8.590;2023-10-13T10:31:44;5.60;;;4.10;;
7493;SDS011;3788;49.902;8.590;2023-10-13T10:34:12;6.07;;;4.50;;
7493;SDS011;3788;49.902;8.590;2023-10-13T10:36:39;7.23;;;4.37;;
7493;SDS011;3788;49.902;8.590;2023-10-13T10:39:08;4.63;;;4.20;;
7493;SDS011;3788;49.902;8.590;2023-10-13T10:41:37;6.73;;;4.47;;
7493;SDS011;3788;49.902;8.590;2023-10-13T10:44:10;7.17;;;4.37;;
7493;SDS011;3788;49.902;8.590;2023-10-13T10:46:42;8.23;;;4.77;;
7493;SDS011;3788;49.902;8.590;2023-10-13T10:49:18;8.03;;;4.23;;
7493;SDS011;3788;49.902;8.590;2023-10-13T10:51:52;5.00;;;4.50;;
7493;SDS011;3788;49.902;8.590;2023-10-13T10:54:29;8.00;;;4.30;;
7493;SDS011;3788;49.902;8.590;2023-10-13T10:56:57;5.50;;;3.73;;
7493;SDS011;3788;49.902;8.590;2023-10-13T10:59:36;7.20;;;5.13;;
7493;SDS011;3788;49.902;8.590;2023-10-13T11:02:03;6.03;;;4.10;;
7493;SDS011;3788;49.902;8.590;2023-10-13T11:04:33;7.93;;;4.00;;
7493;SDS011;3788;49.902;8.590;2023-10-13T11:07:00;5.70;;;4.20;;
7493;SDS011;3788;49.902;8.590;2023-10-13T11:09:28;7.50;;;4.23;;
7493;SDS011;3788;49.902;8.590;2023-10-13T11:12:09;6.90;;;4.50;;
7493;SDS011;3788;49.902;8.590;2023-10-13T11:14:49;7.77;;;5.07;;
7493;SDS011;3788;49.902;8.590;2023-10-13T11:17:27;6.40;;;4.33;;
7493;SDS011;3788;49.902;8.590;2023-10-13T11:20:12;7.73;;;4.63;;
7493;SDS011;3788;49.902;8.590;2023-10-13T11:22:45;9.50;;;5.50;;
7493;SDS011;3788;49.902;8.590;2023-10-13T11:25:20;6.40;;;4.67;;
7493;SDS011;3788;49.902;8.590;2023-10-13T11:27:48;7.43;;;4.60;;
7493;SDS011;3788;49.902;8.590;2023-10-13T11:30:25;7.50;;;4.40;;
7493;SDS011;3788;49.902;8.590;2023-10-13T11:32:57;7.67;;;4.97;;
7493;SDS011;3788;49.902;8.590;2023-10-13T11:35:25;6.37;;;4.93;;
7493;SDS011;3788;49.902;8.590;2023-10-13T11:38:13;7.37;;;4.80;;
7493;SDS011;3788;49.902;8.590;2023-10-13T11:40:41;7.17;;;4.67;;
7493;SDS011;3788;49.902;8.590;2023-10-13T11:43:31;5.27;;;4.77;;
7493;SDS011;3788;49.902;8.590;2023-10-13T11:46:05;8.60;;;5.13;;
7493;SDS011;3788;49.902;8.590;2023-10-13T11:48:40;6.23;;;5.37;;
7493;SDS011;3788;49.902;8.590;2023-10-13T11:51:09;7.00;;;5.07;;
7493;SDS011;3788;49.902;8.590;2023-10-13T11:53:42;6.77;;;4.77;;
7493;SDS011;3788;49.902;8.590;2023-10-13T11:56:10;5.53;;;4.03;;
7493;SDS011;3788;49.902;8.590;2023-10-13T11:58:37;5.97;;;4.60;;
7493;SDS011;3788;49.902;8.590;2023-10-13T12:01:05;10.93;;;5.10;;
7493;SDS011;3788;49.902;8.590;2023-10-13T12:03:45;6.00;;;4.63;;
7493;SDS011;3788;49.902;8.590;2023-10-13T12:06:33;6.90;;;4.87;;
7493;SDS011;3788;49.902;8.590;2023-10-13T12:09:11;7.83;;;4.67;;
7493;SDS011;3788;49.902;8.590;2023-10-13T12:11:59;6.33;;;4.40;;
7493;SDS011;3788;49.902;8.590;2023-10-13T12:14:27;7.20;;;4.90;;
7493;SDS011;3788;49.902;8.590;2023-10-13T12:16:54;9.20;;;4.30;;
7493;SDS011;3788;49.902;8.590;2023-10-13T12:19:28;5.63;;;4.13;;
7493;SDS011;3788;49.902;8.590;2023-10-13T12:21:56;6.00;;;4.17;;
7493;SDS011;3788;49.902;8.590;2023-10-13T12:24:29;5.87;;;4.10;;
7493;SDS011;3788;49.902;8.590;2023-10-13T12:27:05;4.87;;;4.20;;
7493;SDS011;3788;49.902;8.590;2023-10-13T12:29:44;6.93;;;4.30;;
7493;SDS011;3788;49.902;8.590;2023-10-13T12:32:11;7.50;;;4.47;;
7493;SDS011;3788;49.902;8.590;2023-10-13T12:34:39;4.57;;;4.07;;
7493;SDS011;3788;49.902;8.590;2023-10-13T12:37:24;6.50;;;3.90;;
7493;SDS011;3788;49.902;8.590;2023-10-13T12:40:15;5.97;;;4.20;;
7493;SDS011;3788;49.902;8.590;2023-10-13T12:43:00;5.23;;;3.90;;
7493;SDS011;3788;49.902;8.590;2023-10-13T12:45:46;4.90;;;4.30;;
7493;SDS011;3788;49.902;8.590;2023-10-13T12:48:31;6.20;;;4.23;;
7493;SDS011;3788;49.902;8.590;2023-10-13T12:51:27;7.17;;;4.13;;
7493;SDS011;3788;49.902;8.590;2023-10-13T12:54:17;7.27;;;4.43;;
7493;SDS011;3788;49.902;8.590;2023-10-13T12:56:48;5.07;;;4.00;;
7493;SDS011;3788;49.902;8.590;2023-10-13T12:59:21;4.63;;;4.00;;
7493;SDS011;3788;49.902;8.590;2023-10-13T13:01:51;4.87;;;3.80;;
7493;SDS011;3788;49.902;8.590;2023-10-13T13:04:18;5.10;;;4.23;;
7493;SDS011;3788;49.902;8.590;2023-10-13T13:06:46;4.80;;;4.27;;
7493;SDS011;3788;49.902;8.590;2023-10-13T13:09:13;4.77;;;4.23;;
7493;SDS011;3788;49.902;8.590;2023-10-13T13:14:24;6.87;;;4.23;;
7493;SDS011;3788;49.902;8.590;2023-10-13T13:16:54;5.17;;;4.20;;
7493;SDS011;3788;49.902;8.590;2023-10-13T13:19:29;5.63;;;3.80;;
7493;SDS011;3788;49.902;8.590;2023-10-13T13:21:58;6.23;;;3.80;;
7493;SDS011;3788;49.902;8.590;2023-10-13T13:24:25;7.00;;;3.70;;
7493;SDS011;3788;49.902;8.590;2023-10-13T13:26:55;5.93;;;3.80;;
7493;SDS011;3788;49.902;8.590;2023-10-13T13:29:23;7.43;;;3.90;;
7493;SDS011;3788;49.902;8.590;2023-10-13T13:31:51;5.67;;;3.57;;
7493;SDS011;3788;49.902;8.590;2023-10-13T13:34:18;3.83;;;3.47;;
7493;SDS011;3788;49.902;8.590;2023-10-13T13:36:46;5.03;;;3.73;;
7493;SDS011;3788;49.902;8.590;2023-10-13T13:39:17;6.03;;;3.80;;
7493;SDS011;3788;49.902;8.590;2023-10-13T13:41:53;7.30;;;3.13;;
7493;SDS011;3788;49.902;8.590;2023-10-13T13:44:23;5.93;;;3.63;;
7493;SDS011;3788;49.902;8.590;2023-10-13T13:46:54;6.17;;;3.70;;
7493;SDS011;3788;49.902;8.590;2023-10-13T13:49:22;5.43;;;3.20;;
7493;SDS011;3788;49.902;8.590;2023-10-13T13:51:55;8.13;;;3.93;;
7493;SDS011;3788;49.902;8.590;2023-10-13T13:54:22;3.80;;;3.40;;
7493;SDS011;3788;49.902;8.590;2023-10-13T13:56:52;6.40;;;3.40;;
7493;SDS011;3788;49.902;8.590;2023-10-13T13:59:19;4.33;;;3.00;;
7493;SDS011;3788;49.902;8.590;2023-10-13T14:01:47;4.93;;;3.20;;
7493;SDS011;3788;49.902;8.590;2023-10-13T14:04:14;4.53;;;3.43;;
7493;SDS011;3788;49.902;8.590;2023-10-13T14:06:42;4.77;;;3.10;;
7493;SDS011;3788;49.902;8.590;2023-10-13T14:09:10;4.20;;;3.30;;
7493;SDS011;3788;49.902;8.590;2023-10-13T14:11:42;7.03;;;3.03;;
7493;SDS011;3788;49.902;8.590;2023-10-13T14:14:27;5.93;;;3.43;;
7493;SDS011;3788;49.902;8.590;2023-10-13T14:16:59;6.67;;;3.63;;
7493;SDS011;3788;49.902;8.590;2023-10-13T14:19:32;3.63;;;3.20;;
7493;SDS011;3788;49.902;8.590;2023-10-13T14:21:59;5.40;;;3.10;;
7493;SDS011;3788;49.902;8.590;2023-10-13T14:24:31;3.83;;;3.10;;
7493;SDS011;3788;49.902;8.590;2023-10-13T14:26:59;4.07;;;3.37;;
7493;SDS011;3788;49.902;8.590;2023-10-13T14:29:33;4.33;;;3.30;;
7493;SDS011;3788;49.902;8.590;2023-10-13T14:32:06;6.63;;;3.43;;
7493;SDS011;3788;49.902;8.590;2023-10-13T14:34:37;4.23;;;3.70;;
7493;SDS011;3788;49.902;8.590;2023-10-13T14:37:04;4.30;;;3.60;;
7493;SDS011;3788;49.902;8.590;2023-10-13T14:39:31;5.37;;;3.67;;
7493;SDS011;3788;49.902;8.590;2023-10-13T14:41:59;4.20;;;3.80;;
7493;SDS011;3788;49.902;8.590;2023-10-13T14:44:27;4.93;;;3.83;;
7493;SDS011;3788;49.902;8.590;2023-10-13T14:46:54;5.07;;;3.77;;
7493;SDS011;3788;49.902;8.590;2023-10-13T14:49:22;3.73;;;3.43;;
7493;SDS011;3788;49.902;8.590;2023-10-13T14:51:49;3.70;;;3.07;;
7493;SDS011;3788;49.902;8.590;2023-10-13T14:54:17;3.50;;;3.20;;
7493;SDS011;3788;49.902;8.590;2023-10-13T14:56:50;4.13;;;3.00;;
7493;SDS011;3788;49.902;8.590;2023-10-13T14:59:19;3.33;;;2.90;;
7493;SDS011;3788;49.902;8.590;2023-10-13T15:01:47;5.83;;;3.67;;
7493;SDS011;3788;49.902;8.590;2023-10-13T15:04:14;6.20;;;2.93;;
7493;SDS011;3788;49.902;8.590;2023-10-13T15:06:42;4.67;;;3.20;;
7493;SDS011;3788;49.902;8.590;2023-10-13T15:09:09;5.10;;;3.43;;
7493;SDS011;3788;49.902;8.590;2023-10-13T15:11:36;5.20;;;3.50;;
7493;SDS011;3788;49.902;8.590;2023-10-13T15:14:03;5.77;;;3.20;;
7493;SDS011;3788;49.902;8.590;2023-10-13T15:16:31;3.97;;;3.10;;
7493;SDS011;3788;49.902;8.590;2023-10-13T15:18:59;5.73;;;3.40;;
7493;SDS011;3788;49.902;8.590;2023-10-13T15:21:29;4.50;;;3.07;;
7493;SDS011;3788;49.902;8.590;2023-10-13T15:24:00;5.00;;;3.80;;
7493;SDS011;3788;49.902;8.590;2023-10-13T15:26:38;4.50;;;3.20;;
7493;SDS011;3788;49.902;8.590;2023-10-13T15:29:07;4.47;;;3.43;;
7493;SDS011;3788;49.902;8.590;2023-10-13T15:31:37;4.20;;;3.40;;
7493;SDS011;3788;49.902;8.590;2023-10-13T15:34:08;6.07;;;3.30;;
7493;SDS011;3788;49.902;8.590;2023-10-13T15:36:39;4.90;;;4.07;;
7493;SDS011;3788;49.902;8.590;2023-10-13T15:39:09;4.37;;;3.60;;
7493;SDS011;3788;49.902;8.590;2023-10-13T15:41:36;4.10;;;3.50;;
7493;SDS011;3788;49.902;8.590;2023-10-13T15:44:04;3.87;;;3.47;;
7493;SDS011;3788;49.902;8.590;2023-10-13T15:46:34;4.63;;;3.57;;
7493;SDS011;3788;49.902;8.590;2023-10-13T15:49:02;3.33;;;3.03;;
7493;SDS011;3788;49.902;8.590;2023-10-13T15:51:31;4.00;;;3.60;;
7493;SDS011;3788;49.902;8.590;2023-10-13T15:53:58;5.57;;;3.63;;
7493;SDS011;3788;49.902;8.590;2023-10-13T15:56:27;6.33;;;3.77;;
7493;SDS011;3788;49.902;8.590;2023-10-13T15:58:57;5.07;;;3.40;;